createdAt,value
2022-11-27T00:00:14.828Z,2.27
2022-11-27T00:02:42.645Z,2.80
2022-11-27T00:05:12.012Z,2.63
2022-11-27T00:07:39.857Z,2.60
2022-11-27T00:10:08.771Z,2.33
2022-11-27T00:12:36.626Z,2.83
2022-11-27T00:15:05.395Z,2.53
2022-11-27T00:17:33.251Z,2.70
2022-11-27T00:20:01.104Z,2.77
2022-11-27T00:22:30.521Z,2.83
2022-11-27T00:24:58.275Z,2.43
2022-11-27T00:27:26.127Z,2.33
2022-11-27T00:29:53.935Z,2.37
2022-11-27T00:32:21.704Z,2.60
2022-11-27T00:34:49.510Z,2.37
2022-11-27T00:37:17.222Z,2.33
2022-11-27T00:39:46.436Z,2.57
2022-11-27T00:42:14.286Z,2.50
2022-11-27T00:44:42.172Z,2.83
2022-11-27T00:47:10.031Z,3.17
2022-11-27T00:49:37.839Z,2.70
2022-11-27T00:52:05.957Z,2.83
2022-11-27T00:54:33.665Z,2.57
2022-11-27T00:57:02.873Z,2.87
2022-11-27T00:59:30.720Z,3.20
2022-11-27T01:01:58.549Z,2.40
2022-11-27T01:04:26.320Z,2.60
2022-11-27T01:06:54.117Z,2.70
2022-11-27T01:09:21.905Z,2.67
2022-11-27T01:11:49.627Z,3.00
2022-11-27T01:14:19.722Z,3.20
2022-11-27T01:16:47.720Z,2.50
2022-11-27T01:19:16.015Z,2.80
2022-11-27T01:21:43.983Z,2.70
2022-11-27T01:24:13.723Z,2.47
2022-11-27T01:26:41.575Z,2.87
2022-11-27T01:29:09.384Z,2.80
2022-11-27T01:31:38.657Z,2.80
2022-11-27T01:34:07.932Z,2.33
2022-11-27T01:36:36.493Z,2.50
2022-11-27T01:39:04.777Z,2.90
2022-11-27T01:41:35.131Z,2.80
2022-11-27T01:44:05.103Z,3.13
2022-11-27T01:46:36.795Z,2.90
2022-11-27T01:49:23.517Z,2.70
2022-11-27T01:51:56.502Z,3.33
2022-11-27T01:54:26.957Z,2.87
2022-11-27T01:56:57.174Z,2.80
2022-11-27T01:59:25.359Z,2.80
2022-11-27T02:01:53.209Z,3.13
2022-11-27T02:04:22.490Z,3.07
2022-11-27T02:06:50.248Z,2.80
2022-11-27T02:09:18.023Z,2.97
2022-11-27T02:11:51.941Z,3.00
2022-11-27T02:14:25.247Z,3.20
2022-11-27T02:16:58.696Z,2.80
2022-11-27T02:19:39.149Z,2.97
2022-11-27T02:22:09.664Z,2.80
2022-11-27T02:24:49.671Z,2.80
2022-11-27T02:27:35.338Z,2.83
2022-11-27T02:30:06.475Z,2.90
2022-11-27T02:32:38.675Z,2.80
2022-11-27T02:35:10.700Z,2.50
2022-11-27T02:37:43.281Z,2.67
2022-11-27T02:40:13.649Z,2.50
2022-11-27T02:42:43.759Z,2.57
2022-11-27T02:45:15.306Z,2.63
2022-11-27T02:47:46.036Z,2.20
2022-11-27T02:50:19.606Z,3.53
2022-11-27T02:52:48.972Z,2.90
2022-11-27T02:55:19.267Z,2.67
2022-11-27T02:57:47.936Z,2.77
2022-11-27T03:00:18.239Z,2.93
2022-11-27T03:02:48.600Z,2.93
2022-11-27T03:05:18.901Z,2.73
2022-11-27T03:07:51.129Z,3.00
2022-11-27T03:10:22.028Z,2.40
2022-11-27T03:12:50.288Z,2.90
2022-11-27T03:15:20.224Z,2.40
2022-11-27T03:17:53.433Z,2.73
2022-11-27T03:20:23.205Z,2.53
2022-11-27T03:22:51.059Z,2.57
2022-11-27T03:25:18.845Z,2.80
2022-11-27T03:27:51.338Z,2.73
2022-11-27T03:30:20.452Z,2.63
2022-11-27T03:32:48.286Z,2.80
2022-11-27T03:35:18.715Z,3.20
2022-11-27T03:37:46.585Z,2.67
2022-11-27T03:40:15.723Z,2.57
2022-11-27T03:42:51.881Z,2.70
2022-11-27T03:45:29.644Z,2.77
2022-11-27T03:48:07.786Z,2.80
2022-11-27T03:50:43.309Z,3.47
2022-11-27T03:53:14.615Z,2.43
2022-11-27T03:55:48.140Z,2.93
2022-11-27T03:58:18.999Z,3.20
2022-11-27T04:00:49.946Z,3.10
2022-11-27T04:03:24.791Z,2.63
2022-11-27T04:05:53.052Z,2.77
2022-11-27T04:08:21.055Z,3.10
2022-11-27T04:10:49.084Z,2.57
2022-11-27T04:13:16.977Z,2.80
2022-11-27T04:15:44.893Z,3.10
2022-11-27T04:18:14.163Z,3.10
2022-11-27T04:20:41.960Z,2.80
2022-11-27T04:23:10.057Z,2.40
2022-11-27T04:25:37.863Z,3.00
2022-11-27T04:28:05.628Z,2.90
2022-11-27T04:30:33.452Z,2.77
2022-11-27T04:33:01.238Z,3.27
2022-11-27T04:35:30.377Z,3.13
2022-11-27T04:37:58.368Z,2.90
2022-11-27T04:40:26.348Z,2.90
2022-11-27T04:42:54.158Z,3.23
2022-11-27T04:45:21.976Z,3.10
2022-11-27T04:47:49.720Z,2.70
2022-11-27T04:50:17.505Z,2.90
2022-11-27T04:52:46.697Z,2.73
2022-11-27T04:55:14.517Z,2.53
2022-11-27T04:57:42.312Z,2.80
2022-11-27T05:00:11.144Z,2.97
2022-11-27T05:02:39.567Z,3.07
2022-11-27T05:05:07.926Z,2.77
2022-11-27T05:07:35.927Z,2.90
2022-11-27T05:10:05.491Z,3.07
2022-11-27T05:12:33.280Z,2.70
2022-11-27T05:15:04.472Z,2.70
2022-11-27T05:17:32.709Z,2.30
2022-11-27T05:20:00.529Z,2.80
2022-11-27T05:22:28.435Z,2.60
2022-11-27T05:24:56.185Z,2.87
2022-11-27T05:27:25.470Z,2.20
2022-11-27T05:29:53.261Z,2.37
2022-11-27T05:32:21.000Z,2.57
2022-11-27T05:34:49.654Z,2.20
2022-11-27T05:37:19.768Z,2.60
2022-11-27T05:39:47.956Z,2.43
2022-11-27T05:42:15.719Z,2.80
2022-11-27T05:44:44.795Z,2.67
2022-11-27T05:47:12.578Z,2.70
2022-11-27T05:49:40.293Z,2.50
2022-11-27T05:52:08.089Z,2.73
2022-11-27T05:54:35.827Z,3.00
2022-11-27T05:57:03.647Z,2.67
2022-11-27T05:59:31.412Z,3.27
2022-11-27T06:02:00.597Z,2.50
2022-11-27T06:04:28.358Z,2.90
2022-11-27T06:06:56.180Z,2.77
2022-11-27T06:09:24.060Z,2.90
2022-11-27T06:11:51.834Z,2.67
2022-11-27T06:14:19.567Z,2.80
2022-11-27T06:16:47.610Z,2.50
2022-11-27T06:19:16.838Z,3.40
2022-11-27T06:21:46.436Z,3.00
2022-11-27T06:24:14.338Z,3.20
2022-11-27T06:26:42.143Z,3.00
2022-11-27T06:29:10.730Z,3.13
2022-11-27T06:31:38.992Z,3.93
2022-11-27T06:34:07.495Z,3.17
2022-11-27T06:36:40.011Z,3.10
2022-11-27T06:39:09.521Z,3.00
2022-11-27T06:41:37.425Z,3.77
2022-11-27T06:44:05.485Z,3.70
2022-11-27T06:46:33.271Z,3.40
2022-11-27T06:49:01.980Z,3.83
2022-11-27T06:51:31.471Z,4.00
2022-11-27T06:54:02.448Z,3.73
2022-11-27T06:56:31.293Z,4.10
2022-11-27T06:59:00.537Z,3.60
2022-11-27T07:01:30.108Z,3.73
2022-11-27T07:03:58.284Z,3.60
2022-11-27T07:06:27.707Z,4.07
2022-11-27T07:08:56.470Z,3.10
2022-11-27T07:11:26.859Z,3.67
2022-11-27T07:13:56.430Z,3.97
2022-11-27T07:16:24.678Z,3.50
2022-11-27T07:18:54.044Z,3.13
2022-11-27T07:21:22.279Z,3.60
2022-11-27T07:23:50.044Z,3.30
2022-11-27T07:26:19.514Z,3.07
2022-11-27T07:28:49.098Z,3.17
2022-11-27T07:31:19.013Z,3.83
2022-11-27T07:33:46.954Z,3.33
2022-11-27T07:36:16.418Z,3.33
2022-11-27T07:38:44.158Z,2.60
2022-11-27T07:41:12.363Z,2.90
2022-11-27T07:43:40.811Z,3.00
2022-11-27T07:46:13.276Z,3.00
2022-11-27T07:48:41.143Z,3.17
2022-11-27T07:51:10.205Z,3.10
2022-11-27T07:53:38.487Z,2.70
2022-11-27T07:56:06.609Z,3.07
2022-11-27T07:58:34.393Z,3.07
2022-11-27T08:01:02.333Z,3.30
2022-11-27T08:03:31.597Z,3.50
2022-11-27T08:05:59.319Z,3.00
2022-11-27T08:08:27.071Z,3.30
2022-11-27T08:10:54.877Z,2.90
2022-11-27T08:13:22.625Z,2.93
2022-11-27T08:15:50.387Z,2.93
2022-11-27T08:18:18.121Z,3.63
2022-11-27T08:20:47.220Z,4.40
2022-11-27T08:23:14.971Z,2.70
2022-11-27T08:25:42.749Z,2.40
2022-11-27T08:28:10.600Z,2.67
2022-11-27T08:30:38.410Z,2.20
2022-11-27T08:33:06.201Z,2.63
2022-11-27T08:35:34.188Z,2.53
2022-11-27T08:38:03.621Z,2.73
2022-11-27T08:40:31.388Z,2.70
2022-11-27T08:42:59.490Z,2.83
2022-11-27T08:45:27.253Z,2.67
2022-11-27T08:47:55.028Z,2.97
2022-11-27T08:50:22.727Z,3.00
2022-11-27T08:52:50.527Z,2.30
2022-11-27T08:55:19.638Z,2.70
2022-11-27T08:57:47.439Z,2.23
2022-11-27T09:00:16.200Z,2.10
2022-11-27T09:02:44.000Z,2.80
2022-11-27T09:05:12.091Z,2.30
2022-11-27T09:07:40.902Z,2.70
2022-11-27T09:10:09.391Z,2.60
2022-11-27T09:12:43.188Z,2.53
2022-11-27T09:15:12.106Z,2.33
2022-11-27T09:17:39.970Z,1.87
2022-11-27T09:20:09.044Z,2.60
2022-11-27T09:22:37.008Z,2.70
2022-11-27T09:25:05.174Z,2.10
2022-11-27T09:27:32.881Z,2.17
2022-11-27T09:30:02.211Z,2.60
2022-11-27T09:32:29.927Z,2.20
2022-11-27T09:34:57.894Z,2.27
2022-11-27T09:37:25.708Z,2.13
2022-11-27T09:39:53.451Z,3.60
2022-11-27T09:42:36.991Z,2.03
2022-11-27T09:45:08.580Z,2.17
2022-11-27T09:47:41.820Z,2.27
2022-11-27T09:50:14.385Z,2.03
2022-11-27T09:52:44.776Z,2.13
2022-11-27T09:55:16.400Z,2.10
2022-11-27T09:57:48.581Z,2.22
2022-11-27T10:00:19.233Z,2.10
2022-11-27T10:02:48.133Z,1.97
2022-11-27T10:05:20.332Z,2.60
2022-11-27T10:08:13.003Z,2.10
2022-11-27T10:10:44.801Z,2.00
2022-11-27T10:13:23.842Z,1.55
2022-11-27T10:15:57.145Z,2.03
2022-11-27T10:18:32.346Z,1.93
2022-11-27T10:21:04.922Z,1.73
2022-11-27T10:23:41.720Z,2.00
2022-11-27T10:26:16.604Z,1.95
2022-11-27T10:28:49.776Z,1.87
2022-11-27T10:31:22.219Z,1.90
2022-11-27T10:33:52.518Z,1.93
2022-11-27T10:36:28.480Z,1.70
2022-11-27T10:38:57.773Z,1.60
2022-11-27T10:44:29.153Z,1.42
2022-11-27T10:47:02.319Z,1.73
2022-11-27T10:49:30.192Z,1.80
2022-11-27T10:51:58.075Z,1.98
2022-11-27T10:54:29.202Z,1.48
2022-11-27T10:57:29.432Z,1.42
2022-11-27T11:00:06.236Z,1.67
2022-11-27T11:02:37.823Z,1.45
2022-11-27T11:05:35.012Z,1.88
2022-11-27T11:08:04.932Z,1.85
2022-11-27T11:10:35.423Z,1.33
2022-11-27T11:13:09.795Z,1.33
2022-11-27T11:15:51.407Z,1.65
2022-11-27T11:18:21.467Z,1.60
2022-11-27T11:20:51.279Z,2.22
2022-11-27T11:23:34.245Z,1.40
2022-11-27T11:26:06.414Z,1.40
2022-11-27T11:28:39.580Z,1.40
2022-11-27T11:31:10.510Z,1.70
2022-11-27T11:33:49.463Z,1.60
2022-11-27T11:36:17.446Z,1.50
2022-11-27T11:38:46.751Z,1.52
2022-11-27T11:41:17.924Z,1.50
2022-11-27T11:43:55.709Z,1.40
2022-11-27T11:46:26.114Z,1.20
2022-11-27T11:49:03.159Z,1.30
2022-11-27T11:51:56.832Z,1.42
2022-11-27T11:54:40.086Z,1.90
2022-11-27T11:57:25.235Z,1.42
2022-11-27T11:59:58.920Z,1.70
2022-11-27T12:02:39.280Z,1.50
2022-11-27T12:05:32.308Z,1.35
2022-11-27T12:08:25.336Z,1.40
2022-11-27T12:10:58.748Z,1.23
2022-11-27T12:13:38.776Z,1.20
2022-11-27T12:16:10.669Z,1.00
2022-11-27T12:18:49.547Z,1.30
2022-11-27T12:21:19.880Z,2.25
2022-11-27T12:23:55.198Z,0.98
2022-11-27T12:26:30.118Z,1.20
2022-11-27T12:29:36.630Z,1.23
2022-11-27T12:32:21.585Z,1.20
2022-11-27T12:35:00.150Z,1.48
2022-11-27T12:37:42.188Z,1.27
2022-11-27T12:40:26.052Z,1.35
2022-11-27T12:43:00.338Z,1.25
2022-11-27T12:45:31.983Z,1.25
2022-11-27T12:48:02.748Z,1.10
2022-11-27T12:50:35.763Z,1.30
2022-11-27T12:53:11.648Z,1.50
2022-11-27T12:55:41.804Z,1.45
2022-11-27T12:58:17.428Z,1.50
2022-11-27T13:00:45.298Z,1.48
2022-11-27T13:03:19.948Z,1.42
2022-11-27T13:05:50.864Z,1.20
2022-11-27T13:08:24.383Z,2.60
2022-11-27T13:10:55.702Z,2.25
2022-11-27T13:13:24.930Z,1.50
2022-11-27T13:15:56.071Z,3.47
2022-11-27T13:18:31.305Z,3.25
2022-11-27T13:21:00.931Z,2.25
2022-11-27T13:23:33.267Z,2.85
2022-11-27T13:26:04.453Z,1.60
2022-11-27T13:28:37.421Z,1.80
2022-11-27T13:31:06.202Z,1.50
2022-11-27T13:33:37.927Z,1.88
2022-11-27T13:36:08.987Z,1.60
2022-11-27T13:38:41.858Z,2.05
2022-11-27T13:41:09.754Z,4.20
2022-11-27T13:43:43.282Z,2.92
2022-11-27T13:46:20.850Z,3.65
2022-11-27T13:48:52.698Z,1.90
2022-11-27T13:51:26.693Z,1.52
2022-11-27T13:54:08.138Z,1.65
2022-11-27T13:56:35.935Z,2.33
2022-11-27T13:59:14.442Z,1.58
2022-11-27T14:01:54.588Z,1.77
2022-11-27T14:04:22.427Z,1.65
2022-11-27T14:06:53.792Z,1.48
2022-11-27T14:09:33.743Z,1.48
2022-11-27T14:12:01.742Z,1.60
2022-11-27T14:14:29.690Z,1.80
2022-11-27T14:16:58.899Z,2.03
2022-11-27T14:19:34.382Z,2.17
2022-11-27T14:22:03.288Z,2.05
2022-11-27T14:24:44.109Z,1.63
2022-11-27T14:27:20.429Z,3.30
2022-11-27T14:29:48.392Z,3.42
2022-11-27T14:32:17.435Z,1.90
2022-11-27T14:34:45.609Z,1.85
2022-11-27T14:37:24.916Z,1.60
2022-11-27T14:39:54.288Z,1.90
2022-11-27T14:42:28.132Z,1.60
2022-11-27T14:45:03.758Z,1.65
2022-11-27T14:47:31.738Z,1.58
2022-11-27T14:49:59.776Z,1.58
2022-11-27T14:52:28.152Z,2.60
2022-11-27T14:54:58.422Z,3.17
2022-11-27T14:57:27.704Z,1.80
2022-11-27T15:00:06.177Z,2.22
2022-11-27T15:02:34.781Z,2.00
2022-11-27T15:05:04.396Z,2.40
2022-11-27T15:07:38.068Z,1.98
2022-11-27T15:10:24.307Z,1.63
2022-11-27T15:12:52.135Z,1.73
2022-11-27T15:15:21.736Z,1.80
2022-11-27T15:17:51.597Z,1.88
2022-11-27T15:20:24.593Z,2.07
2022-11-27T15:22:53.438Z,1.90
2022-11-27T15:25:36.687Z,1.93
2022-11-27T15:28:06.224Z,2.47
2022-11-27T15:30:34.298Z,2.83
2022-11-27T15:33:02.164Z,2.87
2022-11-27T15:35:32.440Z,3.73
2022-11-27T15:38:04.252Z,2.80
2022-11-27T15:40:35.967Z,2.20
2022-11-27T15:43:04.073Z,1.70
2022-11-27T15:45:32.992Z,2.30
2022-11-27T15:48:01.920Z,2.23
2022-11-27T15:50:30.631Z,2.00
2022-11-27T15:53:00.815Z,2.10
2022-11-27T15:55:28.756Z,1.87
2022-11-27T15:57:57.861Z,2.60
2022-11-27T16:00:26.009Z,3.60
2022-11-27T16:02:54.031Z,2.20
2022-11-27T16:05:22.069Z,1.80
2022-11-27T16:07:54.663Z,2.70
2022-11-27T16:10:23.103Z,2.37
2022-11-27T16:12:54.797Z,2.37
2022-11-27T16:15:26.570Z,2.30
2022-11-27T16:17:56.688Z,2.40
2022-11-27T16:20:24.520Z,2.93
2022-11-27T16:22:52.472Z,2.97
2022-11-27T16:25:20.366Z,3.73
2022-11-27T16:27:48.067Z,3.20
2022-11-27T16:30:16.241Z,3.90
2022-11-27T16:32:45.364Z,3.53
2022-11-27T16:35:13.906Z,3.50
2022-11-27T16:37:42.434Z,2.83
2022-11-27T16:40:11.570Z,2.97
2022-11-27T16:42:39.957Z,2.70
2022-11-27T16:45:09.043Z,3.27
2022-11-27T16:47:37.069Z,3.50
2022-11-27T16:50:09.737Z,3.20
2022-11-27T16:52:37.530Z,3.07
2022-11-27T16:55:06.087Z,2.37
2022-11-27T16:57:33.854Z,1.80
2022-11-27T17:00:01.637Z,3.63
2022-11-27T17:02:30.300Z,2.50
2022-11-27T17:04:58.111Z,2.40
2022-11-27T17:07:27.280Z,2.50
2022-11-27T17:09:55.066Z,2.30
2022-11-27T17:12:22.877Z,2.70
2022-11-27T17:14:50.640Z,2.83
2022-11-27T17:17:18.427Z,5.80
2022-11-27T17:19:48.990Z,4.03
2022-11-27T17:22:18.654Z,6.47
2022-11-27T17:24:47.999Z,5.57
2022-11-27T17:27:16.539Z,3.30
2022-11-27T17:29:44.299Z,3.27
2022-11-27T17:32:12.982Z,4.37
2022-11-27T17:34:40.791Z,3.83
2022-11-27T17:37:10.066Z,4.27
2022-11-27T17:39:40.664Z,3.73
2022-11-27T17:42:13.906Z,3.47
2022-11-27T17:44:43.139Z,4.03
2022-11-27T17:47:10.903Z,3.73
2022-11-27T17:49:39.896Z,2.87
2022-11-27T17:52:08.578Z,3.37
2022-11-27T17:54:38.289Z,3.27
2022-11-27T17:57:06.405Z,3.80
2022-11-27T17:59:36.381Z,3.57
2022-11-27T18:02:04.241Z,2.83
2022-11-27T18:04:32.307Z,3.27
2022-11-27T18:07:00.085Z,3.10
2022-11-27T18:09:29.945Z,2.77
2022-11-27T18:11:58.841Z,3.00
2022-11-27T18:14:26.671Z,3.30
2022-11-27T18:16:56.404Z,3.60
2022-11-27T18:19:24.289Z,3.23
2022-11-27T18:21:52.000Z,2.80
2022-11-27T18:24:24.317Z,2.93
2022-11-27T18:27:07.695Z,3.57
2022-11-27T18:29:37.177Z,4.17
2022-11-27T18:32:06.771Z,3.53
2022-11-27T18:34:35.222Z,3.50
2022-11-27T18:37:03.073Z,3.27
2022-11-27T18:39:31.352Z,3.00
2022-11-27T18:41:59.286Z,2.50
2022-11-27T18:44:27.329Z,2.93
2022-11-27T18:46:55.208Z,2.67
2022-11-27T18:49:25.260Z,2.60
2022-11-27T18:51:54.681Z,2.70
2022-11-27T18:54:22.797Z,3.40
2022-11-27T18:56:51.516Z,3.43
2022-11-27T18:59:19.567Z,2.90
2022-11-27T19:01:47.552Z,3.00
2022-11-27T19:04:15.995Z,3.27
2022-11-27T19:06:45.485Z,2.90
2022-11-27T19:09:15.035Z,2.70
2022-11-27T19:11:44.185Z,2.70
2022-11-27T19:14:11.986Z,2.20
2022-11-27T19:16:43.876Z,2.97
2022-11-27T19:19:52.193Z,2.97
2022-11-27T19:22:03.318Z,3.00
2022-11-27T19:24:31.167Z,3.03
2022-11-27T19:26:59.045Z,2.77
2022-11-27T19:29:26.970Z,2.53
2022-11-27T19:31:57.909Z,2.57
2022-11-27T19:34:25.890Z,2.30
2022-11-27T19:36:53.963Z,2.20
2022-11-27T19:39:23.362Z,2.40
2022-11-27T19:41:51.603Z,2.40
2022-11-27T19:44:19.677Z,2.10
2022-11-27T19:46:48.865Z,1.80
2022-11-27T19:49:18.200Z,2.50
2022-11-27T19:51:46.976Z,1.80
2022-11-27T19:54:15.696Z,2.13
2022-11-27T19:56:44.926Z,2.40
2022-11-27T19:59:13.532Z,2.30
2022-11-27T20:01:42.471Z,2.27
2022-11-27T20:04:11.630Z,2.90
2022-11-27T20:06:39.689Z,2.63
2022-11-27T20:09:08.254Z,2.33
2022-11-27T20:11:36.418Z,4.40
2022-11-27T20:14:07.186Z,2.90
2022-11-27T20:16:36.200Z,2.70
2022-11-27T20:19:06.116Z,2.50
2022-11-27T20:21:39.378Z,3.00
2022-11-27T20:24:07.730Z,2.27
2022-11-27T20:26:41.309Z,2.67
2022-11-27T20:29:12.475Z,4.53
2022-11-27T20:31:41.848Z,2.03
2022-11-27T20:34:12.453Z,2.70
2022-11-27T20:36:40.970Z,2.87
2022-11-27T20:39:14.045Z,2.57
2022-11-27T20:41:45.675Z,3.50
2022-11-27T20:44:15.799Z,3.60
2022-11-27T20:46:43.582Z,2.87
2022-11-27T20:49:11.973Z,3.40
2022-11-27T20:51:40.001Z,2.57
2022-11-27T20:54:09.651Z,2.53
2022-11-27T20:56:37.643Z,2.13
2022-11-27T20:59:07.787Z,3.00
2022-11-27T21:01:38.568Z,2.10
2022-11-27T21:04:10.108Z,2.70
2022-11-27T21:06:43.683Z,2.60
2022-11-27T21:09:13.867Z,2.67
2022-11-27T21:11:42.663Z,2.97
2022-11-27T21:14:12.382Z,2.53
2022-11-27T21:16:44.931Z,2.33
2022-11-27T21:19:16.003Z,2.47
2022-11-27T21:21:43.967Z,2.97
2022-11-27T21:24:12.239Z,2.90
2022-11-27T21:26:41.537Z,3.00
2022-11-27T21:29:10.234Z,2.30
2022-11-27T21:31:41.636Z,2.50
2022-11-27T21:34:13.240Z,2.47
2022-11-27T21:36:41.135Z,2.50
2022-11-27T21:39:10.220Z,3.10
2022-11-27T21:41:38.082Z,3.00
2022-11-27T21:44:06.618Z,2.47
2022-11-27T21:46:34.922Z,2.20
2022-11-27T21:49:06.343Z,2.00
2022-11-27T21:51:35.519Z,2.53
2022-11-27T21:54:07.712Z,2.40
2022-11-27T21:56:37.682Z,2.17
2022-11-27T21:59:05.574Z,2.17
2022-11-27T22:01:33.701Z,2.77
2022-11-27T22:04:02.523Z,2.77
2022-11-27T22:06:32.051Z,2.50
2022-11-27T22:09:01.140Z,2.57
2022-11-27T22:11:31.352Z,2.27
2022-11-27T22:14:01.207Z,2.83
2022-11-27T22:16:30.326Z,2.57
2022-11-27T22:18:59.481Z,9.17
2022-11-27T22:21:28.332Z,2.50
2022-11-27T22:23:56.286Z,2.90
2022-11-27T22:26:26.138Z,2.70
2022-11-27T22:28:54.069Z,2.30
2022-11-27T22:31:24.109Z,2.63
2022-11-27T22:33:52.222Z,2.90
2022-11-27T22:36:23.357Z,3.80
2022-11-27T22:38:53.053Z,2.97
2022-11-27T22:41:22.524Z,2.90
2022-11-27T22:43:52.083Z,2.30
2022-11-27T22:46:22.453Z,2.43
2022-11-27T22:48:54.698Z,2.50
2022-11-27T22:51:23.951Z,2.90
2022-11-27T22:53:51.908Z,2.50
2022-11-27T22:56:20.092Z,2.43
2022-11-27T22:58:48.880Z,2.00
2022-11-27T23:01:21.087Z,2.33
2022-11-27T23:03:49.108Z,2.43
2022-11-27T23:06:19.602Z,2.33
2022-11-27T23:08:48.347Z,2.20
2022-11-27T23:11:18.839Z,2.63
2022-11-27T23:13:49.910Z,2.37
2022-11-27T23:16:19.650Z,2.70
2022-11-27T23:18:47.485Z,2.80
2022-11-27T23:21:17.021Z,2.40
2022-11-27T23:23:45.238Z,2.43
2022-11-27T23:26:18.125Z,2.90
2022-11-27T23:28:47.163Z,2.90
2022-11-27T23:31:29.273Z,2.90
2022-11-27T23:34:01.240Z,3.00
2022-11-27T23:36:29.511Z,3.17
2022-11-27T23:38:57.275Z,3.03
2022-11-27T23:41:25.962Z,3.63
2022-11-27T23:43:55.008Z,2.60
2022-11-27T23:46:28.234Z,3.53
2022-11-27T23:48:56.877Z,3.17
2022-11-27T23:51:27.261Z,2.70
2022-11-27T23:53:55.399Z,2.97
2022-11-27T23:56:24.711Z,2.93
2022-11-27T23:58:52.743Z,3.13
